Harris, New York
Current Conditions -  °F | °C
As of 3:35 AM on Thursday 18 Dec 2014 (Local Time) from KMSV Reporting Station
Overcast Overcast  
Wind Chill: 18°   Ceiling: 2500
Heat Index: 30°   Visibility: 10mi
Dew Point: 25°   Wind: 17mph
Humidity: 80%   Direction: 290°WNW
Pressure: 29.87"   Gusts: 28mph
Location:  41.71°N, 74.73°W
Report Text: KMSV 180835Z AUTO 29015G24KT 10SM BKN025 OVC032 M01/M04 A2987 RMK AO1
Loading
Personal Weather Stations






























Interactive Weather Map New forecast layout! Learn more

10-Day Weather Forecast

Advertisements
Track Severe Weather on mobile